Terminal Aerodrome Forecast
Issued by NWS Omaha/Valley, NE

Home | Current Version | Previous Version | Text Only | Print | Product List | Glossary Off
Versions: 1 2 3 4 5 6 7 8 9 10 11 12 13 14 15 16

000
FTUS43 KOAX 170520
TAFOFK
TAF
KOFK 170520Z 1706/1806 18012KT P6SM BKN120 WS020/22045KT
     FM171100 22009KT P6SM BKN100
     FM171700 28011KT P6SM SCT050 SCT250
     FM172000 31016KT P6SM FEW250
     FM180000 32008KT P6SM FEW250=

USA.gov is the U.S. government's official web portal to all federal, state and local government web resources and services.